Time;durP1;ratioP1;P1;durP2;ratioP2;P2;SDS_P1;SDS_P2;PMS_P1;PMS_P2;Temp;Humidity;BMP_temperature;BMP_pressure;BME280_temperature;BME280_humidity;BME280_pressure;Samples;Min_cycle;Max_cycle;Signal;HPM_P1;HPM_P2
2022/11/06 00:00:21;;;;;;;;;;;11.00;99.90;;;;;;5094656;28;19908;-77
2022/11/06 00:02:46;;;;;;;;;;;11.00;99.90;;;;;;5094949;28;20380;-75
2022/11/06 00:07:57;;;;;;;;;;;11.00;99.90;;;;;;5095055;28;20010;-76
2022/11/06 00:10:23;;;;;;;;;;;11.10;99.90;;;;;;5094206;28;19951;-75
2022/11/06 00:12:49;;;;;;;;;;;11.10;99.90;;;;;;5094721;28;19912;-75
2022/11/06 00:15:14;;;;;;;;;;;11.10;99.90;;;;;;5093363;28;20361;-76
2022/11/06 00:17:40;;;;;;;;;;;11.20;99.90;;;;;;5094558;28;20357;-76
2022/11/06 00:20:06;;;;;;;;;;;11.20;99.90;;;;;;5094870;28;19908;-76
2022/11/06 00:22:32;;;;;;;;;;;11.20;99.90;;;;;;5092672;28;19908;-76
2022/11/06 00:24:58;;;;;;;;;;;11.10;99.90;;;;;;5093394;28;20020;-76
2022/11/06 00:27:23;;;;;;;;;;;11.20;99.90;;;;;;5094465;28;19930;-76
2022/11/06 00:29:49;;;;;;;;;;;11.20;99.90;;;;;;5094470;28;19940;-76
2022/11/06 00:32:15;;;;;;;;;;;11.20;99.90;;;;;;5094156;28;20433;-76
2022/11/06 00:34:41;;;;;;;;;;;11.20;99.90;;;;;;5095058;28;19912;-75
2022/11/06 00:37:06;;;;;;;;;;;11.20;99.90;;;;;;5094353;28;20041;-76
2022/11/06 00:39:32;;;;;;;;;;;11.20;99.90;;;;;;5093679;28;19931;-76
2022/11/06 00:41:59;;;;;;;;;;;11.20;99.90;;;;;;5092504;28;19908;-77
2022/11/06 00:44:24;;;;;;;;;;;11.20;99.90;;;;;;5091864;28;19971;-77
2022/11/06 00:46:50;;;;;;;;;;;11.20;99.90;;;;;;5093674;28;19912;-77
2022/11/06 00:49:15;;;;;;;;;;;11.20;99.90;;;;;;5093253;28;20272;-78
2022/11/06 00:51:41;;;;;;;;;;;11.10;99.90;;;;;;5093229;28;20264;-76
2022/11/06 00:54:09;;;;;;;;;;;11.10;99.90;;;;;;5091204;28;19916;-77
2022/11/06 00:56:35;;;;;;;;;;;11.10;99.90;;;;;;5092505;28;19924;-77
2022/11/06 00:59:02;;;;;;;;;;;11.10;99.90;;;;;;5094072;28;19931;-77
2022/11/06 01:01:34;;;;;;;;;;;11.10;99.90;;;;;;5092894;28;19913;-77
2022/11/06 01:04:01;;;;;;;;;;;11.00;99.90;;;;;;5093415;28;19908;-75
2022/11/06 01:06:32;;;;;;;;;;;11.00;99.90;;;;;;5092466;28;19912;-74
2022/11/06 01:08:57;;;;;;;;;;;11.00;99.90;;;;;;5091333;28;19915;-76
2022/11/06 01:11:26;;;;;;;;;;;11.00;99.90;;;;;;5090799;28;19912;-76
2022/11/06 01:13:53;;;;;;;;;;;11.00;99.90;;;;;;5093343;28;20277;-75
2022/11/06 01:16:19;;;;;;;;;;;11.00;99.90;;;;;;5092596;28;19908;-75
2022/11/06 01:18:45;;;;;;;;;;;11.00;99.90;;;;;;5093043;28;19915;-75
2022/11/06 01:21:15;;;;;;;;;;;11.00;99.90;;;;;;5092654;28;20012;-75
2022/11/06 01:23:41;;;;;;;;;;;10.90;99.90;;;;;;5091758;28;20358;-75
2022/11/06 01:26:07;;;;;;;;;;;10.90;99.90;;;;;;5093299;28;19919;-75
2022/11/06 01:28:33;;;;;;;;;;;10.90;99.90;;;;;;5091659;28;19908;-75
2022/11/06 01:31:03;;;;;;;;;;;10.90;99.90;;;;;;5092691;28;19919;-75
2022/11/06 01:33:28;;;;;;;;;;;10.90;99.90;;;;;;5092950;28;19953;-76
2022/11/06 01:35:54;;;;;;;;;;;10.90;99.90;;;;;;5092214;28;19908;-75
2022/11/06 01:38:19;;;;;;;;;;;10.90;99.90;;;;;;5092790;28;19908;-76
2022/11/06 01:40:46;;;;;;;;;;;10.80;99.90;;;;;;5093224;28;19931;-75
2022/11/06 01:43:17;;;;;;;;;;;10.90;99.90;;;;;;5092224;28;19955;-75
2022/11/06 01:45:44;;;;;;;;;;;10.80;99.90;;;;;;5092997;28;19909;-74
2022/11/06 01:48:11;;;;;;;;;;;10.80;99.90;;;;;;5093000;28;19908;-75
2022/11/06 01:50:37;;;;;;;;;;;10.80;99.90;;;;;;5092490;28;20324;-74
2022/11/06 01:53:03;;;;;;;;;;;10.80;99.90;;;;;;5091873;28;20007;-75
2022/11/06 01:55:34;;;;;;;;;;;10.70;99.90;;;;;;5092544;28;19914;-75
2022/11/06 01:58:00;;;;;;;;;;;10.70;99.90;;;;;;5093196;28;19927;-75
2022/11/06 02:00:26;;;;;;;;;;;10.70;99.90;;;;;;5092498;28;20003;-75
2022/11/06 02:02:52;;;;;;;;;;;10.70;99.90;;;;;;5091893;28;19943;-74
2022/11/06 02:05:18;;;;;;;;;;;10.60;99.90;;;;;;5092530;28;19955;-75
2022/11/06 02:07:44;;;;;;;;;;;10.70;99.90;;;;;;5091279;28;20414;-74
2022/11/06 02:10:09;;;;;;;;;;;10.60;99.90;;;;;;5092676;28;20003;-75
2022/11/06 02:12:39;;;;;;;;;;;10.60;99.90;;;;;;5092282;28;19922;-75
2022/11/06 02:15:07;;;;;;;;;;;10.60;99.90;;;;;;5093469;28;19915;-75
2022/11/06 02:17:33;;;;;;;;;;;10.60;99.90;;;;;;5092863;28;19931;-75
2022/11/06 02:20:10;;;;;;;;;;;10.60;99.90;;;;;;5092984;28;20300;-75
2022/11/06 02:22:38;;;;;;;;;;;10.60;99.90;;;;;;5092590;28;19931;-75
2022/11/06 02:25:04;;;;;;;;;;;10.70;99.90;;;;;;5092697;28;19969;-75
2022/11/06 02:27:31;;;;;;;;;;;10.70;99.90;;;;;;5092337;28;19908;-74
2022/11/06 02:30:02;;;;;;;;;;;10.70;99.90;;;;;;5092986;28;19908;-75
2022/11/06 02:32:32;;;;;;;;;;;10.70;99.90;;;;;;5091035;28;20388;-75
2022/11/06 02:34:59;;;;;;;;;;;10.70;99.90;;;;;;5091524;28;20336;-75
2022/11/06 02:37:29;;;;;;;;;;;10.70;99.90;;;;;;5092299;28;19908;-75
2022/11/06 02:39:56;;;;;;;;;;;10.70;99.90;;;;;;5093108;28;19908;-75
2022/11/06 02:42:23;;;;;;;;;;;10.70;99.90;;;;;;5092663;28;19909;-76
2022/11/06 02:44:50;;;;;;;;;;;10.70;99.90;;;;;;5091349;28;20357;-75
2022/11/06 02:47:18;;;;;;;;;;;10.70;99.90;;;;;;5092798;28;19915;-76
2022/11/06 02:49:48;;;;;;;;;;;10.70;99.90;;;;;;5092065;28;19946;-76
2022/11/06 02:52:24;;;;;;;;;;;10.70;99.90;;;;;;5092737;28;19912;-75
2022/11/06 02:54:54;;;;;;;;;;;10.70;99.90;;;;;;5092495;28;19912;-76
2022/11/06 02:57:20;;;;;;;;;;;10.80;99.90;;;;;;5092646;28;19920;-76
2022/11/06 03:00:05;;;;;;;;;;;10.80;99.90;;;;;;5090825;28;19908;-75
2022/11/06 03:02:44;;;;;;;;;;;10.80;99.90;;;;;;5092014;28;20365;-76
2022/11/06 03:05:17;;;;;;;;;;;10.80;99.90;;;;;;5092976;28;19959;-76
2022/11/06 03:07:47;;;;;;;;;;;10.90;99.90;;;;;;5092252;28;19912;-75
2022/11/06 03:10:12;;;;;;;;;;;11.00;99.90;;;;;;5092569;28;19922;-76
2022/11/06 03:12:38;;;;;;;;;;;11.10;99.90;;;;;;5090587;28;19916;-75
2022/11/06 03:15:09;;;;;;;;;;;11.10;99.90;;;;;;5092416;28;19908;-74
2022/11/06 03:17:38;;;;;;;;;;;11.30;99.90;;;;;;5093831;28;19915;-75
2022/11/06 03:20:06;;;;;;;;;;;11.40;99.90;;;;;;5096042;28;19909;-74
2022/11/06 03:22:40;;;;;;;;;;;11.50;99.90;;;;;;5094932;28;19915;-74
2022/11/06 03:25:06;;;;;;;;;;;11.60;99.90;;;;;;5095648;28;19931;-73
2022/11/06 03:27:34;;;;;;;;;;;11.60;99.90;;;;;;5095043;28;20377;-75
2022/11/06 03:30:05;;;;;;;;;;;11.70;99.90;;;;;;5095748;28;19915;-74
2022/11/06 03:32:34;;;;;;;;;;;11.70;99.90;;;;;;5093943;28;19934;-75
2022/11/06 03:35:02;;;;;;;;;;;11.70;99.90;;;;;;5095682;28;19916;-74
2022/11/06 03:37:33;;;;;;;;;;;11.80;99.90;;;;;;5095106;28;19908;-74
2022/11/06 03:40:01;;;;;;;;;;;11.70;99.90;;;;;;5095635;28;19934;-74
2022/11/06 03:42:28;;;;;;;;;;;11.70;99.90;;;;;;5095365;28;20527;-75
2022/11/06 03:44:56;;;;;;;;;;;11.60;99.90;;;;;;5095789;28;20277;-74
2022/11/06 03:47:27;;;;;;;;;;;11.60;99.90;;;;;;5095285;28;20395;-75
2022/11/06 03:49:58;;;;;;;;;;;11.70;99.90;;;;;;5095376;28;19908;-75
2022/11/06 03:52:27;;;;;;;;;;;11.70;99.90;;;;;;5094956;28;19912;-75
2022/11/06 03:54:59;;;;;;;;;;;11.70;99.90;;;;;;5094887;28;19912;-75
2022/11/06 03:57:28;;;;;;;;;;;11.70;99.90;;;;;;5095037;28;19920;-75
2022/11/06 03:59:57;;;;;;;;;;;11.70;99.90;;;;;;5094889;28;19973;-74
2022/11/06 04:02:24;;;;;;;;;;;11.70;99.90;;;;;;5094949;28;19908;-75
2022/11/06 04:04:55;;;;;;;;;;;11.70;99.90;;;;;;5094349;28;19923;-75
2022/11/06 04:07:33;;;;;;;;;;;11.70;99.90;;;;;;5095075;28;19908;-75
2022/11/06 04:15:31;;;;;;;;;;;11.60;99.90;;;;;;5094815;28;20406;-77
2022/11/06 04:17:56;;;;;;;;;;;11.60;99.90;;;;;;5094836;28;19909;-76
2022/11/06 04:23:20;;;;;;;;;;;11.60;99.90;;;;;;5094537;28;19963;-75
2022/11/06 04:28:42;;;;;;;;;;;11.50;99.90;;;;;;5093671;28;20319;-76
2022/11/06 04:31:10;;;;;;;;;;;11.50;99.90;;;;;;5094517;28;19923;-74
2022/11/06 04:33:55;;;;;;;;;;;11.50;99.90;;;;;;5091747;28;19919;-75
2022/11/06 04:36:36;;;;;;;;;;;11.50;99.90;;;;;;5094585;28;19908;-74
2022/11/06 04:39:08;;;;;;;;;;;11.50;99.90;;;;;;5094231;28;20269;-76
2022/11/06 04:41:43;;;;;;;;;;;11.50;99.90;;;;;;5093724;28;20361;-76
2022/11/06 04:44:12;;;;;;;;;;;11.50;99.90;;;;;;5093028;28;19912;-75
2022/11/06 04:46:58;;;;;;;;;;;11.50;99.90;;;;;;5093866;28;20264;-76
2022/11/06 04:49:25;;;;;;;;;;;11.40;99.90;;;;;;5093706;28;19934;-76
2022/11/06 04:51:51;;;;;;;;;;;11.40;99.90;;;;;;5093549;28;19973;-75
2022/11/06 04:54:17;;;;;;;;;;;11.30;99.90;;;;;;5092961;28;19920;-75
2022/11/06 04:56:43;;;;;;;;;;;11.30;99.90;;;;;;5093462;28;19920;-76
2022/11/06 04:59:11;;;;;;;;;;;11.20;99.90;;;;;;5094378;28;19995;-76
2022/11/06 05:01:36;;;;;;;;;;;11.20;99.90;;;;;;5093303;28;19962;-75
2022/11/06 05:04:02;;;;;;;;;;;11.20;99.90;;;;;;5094195;28;19916;-75
2022/11/06 05:06:27;;;;;;;;;;;11.20;99.90;;;;;;5093809;28;19908;-75
2022/11/06 05:08:54;;;;;;;;;;;11.10;99.90;;;;;;5093146;28;20427;-75
2022/11/06 05:11:19;;;;;;;;;;;11.10;99.90;;;;;;5093972;28;19964;-76
2022/11/06 05:13:45;;;;;;;;;;;11.10;99.90;;;;;;5093471;28;20002;-76
2022/11/06 05:16:10;;;;;;;;;;;11.00;99.90;;;;;;5093697;28;19908;-76
2022/11/06 05:18:36;;;;;;;;;;;11.00;99.90;;;;;;5093266;28;20140;-75
2022/11/06 05:23:46;;;;;;;;;;;10.90;99.90;;;;;;5092655;28;19961;-77
2022/11/06 05:26:12;;;;;;;;;;;10.90;99.90;;;;;;5093769;28;20384;-75
2022/11/06 05:28:38;;;;;;;;;;;10.80;99.90;;;;;;5093049;28;19915;-75
2022/11/06 05:31:04;;;;;;;;;;;10.80;99.90;;;;;;5092087;28;19992;-75
2022/11/06 05:33:30;;;;;;;;;;;10.80;99.90;;;;;;5093843;28;19912;-75
2022/11/06 05:35:55;;;;;;;;;;;10.80;99.90;;;;;;5092972;28;19938;-75
2022/11/06 05:38:21;;;;;;;;;;;10.70;99.90;;;;;;5093891;28;20305;-75
2022/11/06 05:40:47;;;;;;;;;;;10.70;99.90;;;;;;5092371;28;20003;-76
2022/11/06 05:43:12;;;;;;;;;;;10.70;99.90;;;;;;5092416;28;19908;-76
2022/11/06 05:45:38;;;;;;;;;;;10.70;99.90;;;;;;5092764;28;19915;-76
2022/11/06 05:48:03;;;;;;;;;;;10.60;99.90;;;;;;5093191;28;19999;-76
2022/11/06 05:50:29;;;;;;;;;;;10.60;99.90;;;;;;5091982;28;19938;-76
2022/11/06 05:52:54;;;;;;;;;;;10.60;99.90;;;;;;5090963;28;19908;-75
2022/11/06 05:55:20;;;;;;;;;;;10.60;99.90;;;;;;5093020;28;19955;-76
2022/11/06 05:57:45;;;;;;;;;;;10.60;99.90;;;;;;5092315;28;20389;-75
2022/11/06 06:00:11;;;;;;;;;;;10.60;99.90;;;;;;5093291;28;20028;-76
2022/11/06 06:02:37;;;;;;;;;;;10.60;99.90;;;;;;5092314;28;19919;-75
2022/11/06 06:05:03;;;;;;;;;;;10.60;99.90;;;;;;5091867;28;19908;-75
2022/11/06 06:07:28;;;;;;;;;;;10.60;99.90;;;;;;5093140;28;19916;-76
2022/11/06 06:09:54;;;;;;;;;;;10.70;99.90;;;;;;5092586;28;19908;-76
2022/11/06 06:12:22;;;;;;;;;;;10.60;99.90;;;;;;5093022;28;19912;-77
2022/11/06 06:14:48;;;;;;;;;;;10.60;99.90;;;;;;5093424;28;19912;-77
2022/11/06 06:17:13;;;;;;;;;;;10.60;99.90;;;;;;5094495;28;19915;-76
2022/11/06 06:19:39;;;;;;;;;;;10.60;99.90;;;;;;5092980;28;19987;-77
2022/11/06 06:22:05;;;;;;;;;;;10.50;99.90;;;;;;5093390;28;19922;-76
2022/11/06 06:24:30;;;;;;;;;;;10.50;99.90;;;;;;5091606;28;19981;-76
2022/11/06 06:26:56;;;;;;;;;;;10.50;99.90;;;;;;5092471;28;20477;-76
2022/11/06 06:29:21;;;;;;;;;;;10.50;99.90;;;;;;5092814;28;19915;-76
2022/11/06 06:31:48;;;;;;;;;;;10.60;99.90;;;;;;5091333;28;19938;-76
2022/11/06 06:34:14;;;;;;;;;;;10.50;99.90;;;;;;5092721;28;19913;-76
2022/11/06 06:36:40;;;;;;;;;;;10.50;99.90;;;;;;5092399;28;19915;-77
2022/11/06 06:39:05;;;;;;;;;;;10.50;99.90;;;;;;5093059;28;19961;-75
2022/11/06 06:41:32;;;;;;;;;;;10.50;99.90;;;;;;5093096;28;20269;-75
2022/11/06 06:43:57;;;;;;;;;;;10.50;99.90;;;;;;5092028;28;20142;-75
2022/11/06 06:46:23;;;;;;;;;;;10.50;99.90;;;;;;5091450;28;20390;-76
2022/11/06 06:48:49;;;;;;;;;;;10.50;99.90;;;;;;5092259;28;19908;-76
2022/11/06 06:51:14;;;;;;;;;;;10.60;99.90;;;;;;5094601;28;19977;-76
2022/11/06 06:53:40;;;;;;;;;;;10.60;99.90;;;;;;5095004;28;19962;-77
2022/11/06 06:56:06;;;;;;;;;;;10.60;99.90;;;;;;5096366;28;19914;-76
2022/11/06 06:58:31;;;;;;;;;;;10.60;99.90;;;;;;5096574;28;19920;-75
2022/11/06 07:01:01;;;;;;;;;;;10.50;99.90;;;;;;5095795;28;19912;-76
2022/11/06 07:03:27;;;;;;;;;;;10.50;99.90;;;;;;5096407;28;19908;-75
2022/11/06 07:05:52;;;;;;;;;;;10.50;99.90;;;;;;5095741;28;19914;-75
2022/11/06 07:08:18;;;;;;;;;;;10.40;99.90;;;;;;5097296;28;19908;-74
2022/11/06 07:10:44;;;;;;;;;;;10.40;99.90;;;;;;5096075;28;20425;-76
2022/11/06 07:13:09;;;;;;;;;;;10.30;99.90;;;;;;5096028;28;19947;-75
2022/11/06 07:15:35;;;;;;;;;;;10.30;99.90;;;;;;5095932;28;19908;-76
2022/11/06 07:18:01;;;;;;;;;;;10.30;99.90;;;;;;5095512;28;19912;-76
2022/11/06 07:20:27;;;;;;;;;;;10.40;99.90;;;;;;5095780;28;20073;-76
2022/11/06 07:22:53;;;;;;;;;;;10.40;99.90;;;;;;5095423;28;19940;-75
2022/11/06 07:25:18;;;;;;;;;;;10.30;99.90;;;;;;5095977;28;19973;-75
2022/11/06 07:27:44;;;;;;;;;;;10.30;99.90;;;;;;5095334;28;20357;-76
2022/11/06 07:30:10;;;;;;;;;;;10.30;99.90;;;;;;5095499;28;19908;-76
2022/11/06 07:32:35;;;;;;;;;;;10.20;99.90;;;;;;5095814;28;19912;-76
2022/11/06 07:35:01;;;;;;;;;;;10.20;99.90;;;;;;5094977;28;19912;-76
2022/11/06 07:37:26;;;;;;;;;;;10.20;99.90;;;;;;5094412;28;20011;-76
2022/11/06 07:39:52;;;;;;;;;;;10.20;99.90;;;;;;5095083;28;19962;-76
2022/11/06 07:42:18;;;;;;;;;;;10.10;99.90;;;;;;5095667;28;19954;-75
2022/11/06 07:44:43;;;;;;;;;;;10.10;99.90;;;;;;5095176;28;19908;-77
2022/11/06 07:47:09;;;;;;;;;;;10.10;99.90;;;;;;5095158;28;20325;-76
2022/11/06 07:49:34;;;;;;;;;;;10.00;99.90;;;;;;5095260;28;19962;-75
2022/11/06 07:52:00;;;;;;;;;;;9.90;99.90;;;;;;5093949;28;19919;-75
2022/11/06 07:54:25;;;;;;;;;;;9.90;99.90;;;;;;5095458;28;20497;-75
2022/11/06 07:56:51;;;;;;;;;;;9.90;99.90;;;;;;5094711;28;20319;-75
2022/11/06 07:59:17;;;;;;;;;;;9.80;99.90;;;;;;5096632;28;19964;-76
2022/11/06 08:01:42;;;;;;;;;;;9.80;99.90;;;;;;5095112;28;19915;-76
2022/11/06 08:04:08;;;;;;;;;;;9.90;99.90;;;;;;5092948;28;19915;-76
2022/11/06 08:06:34;;;;;;;;;;;9.90;99.90;;;;;;5093918;28;20060;-76
2022/11/06 08:08:59;;;;;;;;;;;9.90;99.90;;;;;;5094201;28;19964;-76
2022/11/06 08:11:26;;;;;;;;;;;9.90;99.90;;;;;;5094467;28;19916;-76
2022/11/06 08:13:52;;;;;;;;;;;10.00;99.90;;;;;;5094398;28;19923;-76
2022/11/06 08:16:17;;;;;;;;;;;10.10;99.90;;;;;;5094269;28;19920;-77
2022/11/06 08:18:43;;;;;;;;;;;10.10;99.90;;;;;;5093645;28;19908;-75
2022/11/06 08:21:09;;;;;;;;;;;10.10;99.90;;;;;;5094340;28;19908;-76
2022/11/06 08:23:34;;;;;;;;;;;10.20;99.90;;;;;;5094155;28;19970;-76
2022/11/06 08:26:01;;;;;;;;;;;10.40;99.90;;;;;;5093385;28;20303;-75
2022/11/06 08:28:27;;;;;;;;;;;10.50;99.90;;;;;;5094231;28;19954;-75
2022/11/06 08:30:52;;;;;;;;;;;10.50;99.90;;;;;;5093111;28;19912;-75
2022/11/06 08:33:19;;;;;;;;;;;10.70;99.90;;;;;;5094058;28;19998;-74
2022/11/06 08:35:45;;;;;;;;;;;10.70;99.90;;;;;;5093867;28;19938;-77
2022/11/06 08:38:10;;;;;;;;;;;10.80;99.90;;;;;;5094197;28;19912;-76
2022/11/06 08:40:37;;;;;;;;;;;10.90;99.90;;;;;;5094002;28;20270;-76
2022/11/06 08:43:04;;;;;;;;;;;11.00;99.90;;;;;;5092794;28;19908;-76
2022/11/06 08:45:30;;;;;;;;;;;11.10;99.90;;;;;;5093450;28;19935;-76
2022/11/06 08:47:59;;;;;;;;;;;11.10;99.90;;;;;;5092865;28;19908;-76
2022/11/06 08:50:25;;;;;;;;;;;11.20;99.90;;;;;;5092493;28;19912;-75
2022/11/06 08:52:50;;;;;;;;;;;11.20;99.90;;;;;;5093095;28;19916;-75
2022/11/06 08:55:16;;;;;;;;;;;11.30;99.90;;;;;;5093663;28;20004;-76
2022/11/06 08:57:41;;;;;;;;;;;11.30;99.90;;;;;;5094191;28;19920;-75
2022/11/06 09:00:07;;;;;;;;;;;11.30;99.90;;;;;;5093244;28;20573;-75
2022/11/06 09:02:33;;;;;;;;;;;11.30;99.90;;;;;;5094051;28;20007;-75
2022/11/06 09:04:58;;;;;;;;;;;11.30;99.90;;;;;;5093470;28;19908;-74
2022/11/06 09:07:24;;;;;;;;;;;11.30;99.90;;;;;;5093698;28;19908;-75
2022/11/06 09:09:50;;;;;;;;;;;11.30;99.90;;;;;;5093422;28;20280;-75
2022/11/06 09:12:15;;;;;;;;;;;11.30;99.90;;;;;;5093351;28;19912;-74
2022/11/06 09:14:41;;;;;;;;;;;11.30;99.90;;;;;;5092937;28;19918;-75
2022/11/06 09:17:06;;;;;;;;;;;11.30;99.90;;;;;;5093203;28;20147;-76
2022/11/06 09:19:32;;;;;;;;;;;11.30;99.90;;;;;;5092423;28;19908;-76
2022/11/06 09:21:57;;;;;;;;;;;11.30;99.90;;;;;;5093211;28;19914;-76
2022/11/06 09:24:23;;;;;;;;;;;11.30;99.90;;;;;;5093155;28;19912;-75
2022/11/06 09:26:48;;;;;;;;;;;11.40;99.90;;;;;;5093065;28;19908;-77
2022/11/06 09:29:14;;;;;;;;;;;11.40;99.90;;;;;;5093348;28;19908;-75
2022/11/06 09:31:41;;;;;;;;;;;11.40;99.90;;;;;;5093229;28;19913;-75
2022/11/06 09:34:07;;;;;;;;;;;11.40;99.90;;;;;;5091561;28;19916;-75
2022/11/06 09:36:34;;;;;;;;;;;11.40;99.90;;;;;;5093074;28;20276;-75
2022/11/06 09:38:59;;;;;;;;;;;11.40;99.90;;;;;;5092346;28;19908;-75
2022/11/06 09:41:49;;;;;;;;;;;11.30;99.90;;;;;;5093197;28;19920;-74
2022/11/06 09:44:33;;;;;;;;;;;11.30;99.90;;;;;;5086822;28;19908;-76
2022/11/06 09:46:59;;;;;;;;;;;11.30;99.90;;;;;;5092884;28;19908;-76
2022/11/06 09:49:36;;;;;;;;;;;11.30;99.90;;;;;;5093595;28;19912;-75
2022/11/06 09:52:12;;;;;;;;;;;11.20;99.90;;;;;;5092622;28;19912;-75
2022/11/06 09:54:38;;;;;;;;;;;11.20;99.90;;;;;;5092992;28;19951;-75
2022/11/06 09:57:08;;;;;;;;;;;11.30;99.90;;;;;;5092097;28;20434;-75
2022/11/06 09:59:36;;;;;;;;;;;11.30;99.90;;;;;;5093393;28;19966;-75
2022/11/06 10:02:03;;;;;;;;;;;11.30;99.90;;;;;;5092487;28;19955;-75
2022/11/06 10:04:37;;;;;;;;;;;11.30;99.90;;;;;;5093002;28;19912;-75
2022/11/06 10:07:03;;;;;;;;;;;11.30;99.90;;;;;;5092176;28;19938;-75
2022/11/06 10:09:28;;;;;;;;;;;11.40;99.90;;;;;;5092684;28;19908;-75
2022/11/06 10:12:12;;;;;;;;;;;11.40;99.90;;;;;;5092391;28;19916;-76
2022/11/06 10:14:44;;;;;;;;;;;11.40;99.90;;;;;;5093416;28;19919;-75
2022/11/06 10:17:25;;;;;;;;;;;11.40;99.90;;;;;;5091081;28;20313;-76
2022/11/06 10:20:12;;;;;;;;;;;11.50;99.90;;;;;;5092688;28;19916;-76
2022/11/06 10:22:46;;;;;;;;;;;11.50;99.90;;;;;;5093092;28;19912;-75
2022/11/06 10:25:11;;;;;;;;;;;11.50;99.90;;;;;;5092417;28;19923;-75
2022/11/06 10:27:41;;;;;;;;;;;11.50;99.90;;;;;;5096580;28;19916;-75
2022/11/06 10:30:09;;;;;;;;;;;11.70;99.90;;;;;;5096354;28;19915;-74
2022/11/06 10:32:46;;;;;;;;;;;11.70;99.90;;;;;;5096626;28;19919;-75
2022/11/06 10:35:27;;;;;;;;;;;11.80;99.90;;;;;;5096354;28;19963;-76
2022/11/06 10:37:57;;;;;;;;;;;11.80;99.90;;;;;;5095135;28;20003;-76
2022/11/06 10:40:24;;;;;;;;;;;11.90;99.90;;;;;;5096784;28;19908;-76
2022/11/06 10:43:00;;;;;;;;;;;11.90;99.90;;;;;;5096415;28;19908;-77
2022/11/06 10:45:27;;;;;;;;;;;11.90;99.90;;;;;;5096224;28;20365;-76
2022/11/06 10:48:04;;;;;;;;;;;12.00;99.90;;;;;;5096524;28;19961;-76
2022/11/06 10:50:36;;;;;;;;;;;12.00;99.90;;;;;;5096602;28;19915;-76
2022/11/06 10:53:07;;;;;;;;;;;12.00;99.90;;;;;;5095406;28;19916;-75
2022/11/06 10:55:41;;;;;;;;;;;12.10;99.90;;;;;;5095037;28;19912;-76
2022/11/06 10:58:15;;;;;;;;;;;12.20;99.90;;;;;;5095537;28;19985;-76
2022/11/06 11:00:41;;;;;;;;;;;12.30;99.90;;;;;;5096283;28;19912;-76
2022/11/06 11:03:15;;;;;;;;;;;12.40;99.90;;;;;;5095361;28;19918;-75
2022/11/06 11:05:42;;;;;;;;;;;12.50;99.90;;;;;;5096548;28;20304;-74
2022/11/06 11:08:26;;;;;;;;;;;12.60;99.90;;;;;;5095195;28;19912;-75
2022/11/06 11:10:52;;;;;;;;;;;12.60;99.90;;;;;;5096002;28;19950;-75
2022/11/06 11:13:19;;;;;;;;;;;12.60;99.90;;;;;;5095486;28;19920;-75
2022/11/06 11:15:47;;;;;;;;;;;12.60;99.90;;;;;;5094563;28;19955;-75
2022/11/06 11:18:18;;;;;;;;;;;12.60;99.90;;;;;;5095632;28;19908;-74
2022/11/06 11:20:47;;;;;;;;;;;12.50;99.90;;;;;;5095818;28;19908;-77
2022/11/06 11:23:14;;;;;;;;;;;12.50;99.90;;;;;;5095230;28;19915;-76
2022/11/06 11:25:41;;;;;;;;;;;12.50;99.90;;;;;;5095798;28;19938;-74
2022/11/06 11:28:12;;;;;;;;;;;12.40;99.90;;;;;;5094922;28;20002;-75
2022/11/06 11:30:37;;;;;;;;;;;12.40;99.90;;;;;;5096136;28;19919;-75
2022/11/06 11:33:11;;;;;;;;;;;12.50;99.90;;;;;;5094962;28;19912;-76
2022/11/06 11:35:38;;;;;;;;;;;12.60;99.90;;;;;;5095339;28;19908;-74
2022/11/06 11:38:13;;;;;;;;;;;12.70;99.90;;;;;;5093748;28;19962;-75
2022/11/06 11:40:39;;;;;;;;;;;12.80;99.90;;;;;;5095459;28;19909;-75
2022/11/06 11:43:23;;;;;;;;;;;12.90;99.90;;;;;;5094879;28;19915;-75
2022/11/06 11:46:13;;;;;;;;;;;13.10;99.90;;;;;;5095254;28;19934;-74
2022/11/06 11:48:55;;;;;;;;;;;13.20;99.90;;;;;;5095241;28;19907;-75
2022/11/06 11:51:26;;;;;;;;;;;13.20;99.90;;;;;;5094451;28;19938;-75
2022/11/06 11:53:53;;;;;;;;;;;13.30;99.90;;;;;;5095204;28;19919;-75
2022/11/06 11:56:20;;;;;;;;;;;13.20;99.90;;;;;;5094729;28;19926;-75
2022/11/06 11:58:52;;;;;;;;;;;13.30;99.90;;;;;;5095184;28;19926;-76
2022/11/06 12:01:19;;;;;;;;;;;13.30;99.90;;;;;;5094625;28;20517;-76
2022/11/06 12:03:48;;;;;;;;;;;13.30;99.90;;;;;;5095125;28;19970;-75
2022/11/06 12:06:16;;;;;;;;;;;13.40;99.90;;;;;;5094557;28;19915;-76
2022/11/06 12:08:46;;;;;;;;;;;13.40;99.90;;;;;;5094992;28;19915;-76
2022/11/06 12:11:19;;;;;;;;;;;13.50;99.90;;;;;;5094414;28;19962;-75
2022/11/06 12:13:49;;;;;;;;;;;13.40;99.90;;;;;;5094878;28;19917;-76
2022/11/06 12:16:17;;;;;;;;;;;13.50;99.90;;;;;;5093932;28;20384;-76
2022/11/06 12:18:44;;;;;;;;;;;13.50;99.90;;;;;;5093533;28;19908;-75
2022/11/06 12:21:18;;;;;;;;;;;13.50;99.90;;;;;;5094058;28;20006;-76
2022/11/06 12:23:53;;;;;;;;;;;13.40;99.90;;;;;;5094793;28;19930;-76
2022/11/06 12:26:19;;;;;;;;;;;13.40;99.90;;;;;;5092374;28;19912;-76
2022/11/06 12:28:46;;;;;;;;;;;13.40;99.90;;;;;;5094564;28;19909;-75
2022/11/06 12:31:19;;;;;;;;;;;13.30;99.90;;;;;;5093396;28;19912;-75
2022/11/06 12:33:47;;;;;;;;;;;13.30;99.90;;;;;;5092998;28;19919;-75
2022/11/06 12:36:14;;;;;;;;;;;13.20;99.90;;;;;;5093641;28;19908;-75
2022/11/06 12:38:47;;;;;;;;;;;13.30;99.90;;;;;;5094290;28;19909;-75
2022/11/06 12:41:15;;;;;;;;;;;13.30;99.90;;;;;;5093518;28;19908;-76
2022/11/06 12:43:47;;;;;;;;;;;13.30;99.90;;;;;;5094173;28;19962;-76
2022/11/06 12:46:16;;;;;;;;;;;13.30;99.90;;;;;;5093978;28;20349;-76
2022/11/06 12:48:44;;;;;;;;;;;13.40;99.90;;;;;;5093633;28;20399;-75
2022/11/06 12:51:10;;;;;;;;;;;13.40;99.90;;;;;;5093634;28;20077;-75
2022/11/06 12:53:37;;;;;;;;;;;13.50;99.90;;;;;;5093350;28;20533;-75
2022/11/06 12:56:26;;;;;;;;;;;13.50;99.90;;;;;;5093505;28;19915;-77
2022/11/06 12:58:59;;;;;;;;;;;13.50;99.90;;;;;;5093956;28;19965;-75
2022/11/06 13:01:55;;;;;;;;;;;13.50;99.90;;;;;;5092314;28;19958;-76
2022/11/06 13:04:27;;;;;;;;;;;13.60;99.90;;;;;;5083874;28;20353;-76
2022/11/06 13:07:09;;;;;;;;;;;13.60;99.90;;;;;;5093996;28;20269;-75
2022/11/06 13:09:49;;;;;;;;;;;13.70;99.90;;;;;;5093719;28;20265;-74
2022/11/06 13:12:31;;;;;;;;;;;13.70;99.90;;;;;;5092960;28;20273;-75
2022/11/06 13:15:04;;;;;;;;;;;13.70;99.90;;;;;;5093435;28;19919;-75
2022/11/06 13:17:31;;;;;;;;;;;13.70;99.90;;;;;;5093475;28;19953;-75
2022/11/06 13:20:02;;;;;;;;;;;13.60;99.90;;;;;;5093409;28;20319;-75
2022/11/06 13:22:51;;;;;;;;;;;13.60;99.90;;;;;;5093152;28;19944;-75
2022/11/06 13:25:20;;;;;;;;;;;13.60;99.90;;;;;;5092700;28;20536;-74
2022/11/06 13:27:48;;;;;;;;;;;13.50;99.90;;;;;;5093506;28;19908;-74
2022/11/06 13:30:18;;;;;;;;;;;13.50;99.90;;;;;;5092570;28;19908;-75
2022/11/06 13:32:59;;;;;;;;;;;13.60;99.90;;;;;;5093382;28;19912;-74
2022/11/06 13:35:25;;;;;;;;;;;13.50;99.90;;;;;;5092784;28;19908;-75
2022/11/06 13:37:51;;;;;;;;;;;13.50;99.90;;;;;;5093048;28;19912;-75
2022/11/06 13:40:28;;;;;;;;;;;13.50;99.90;;;;;;5092801;28;19908;-75
2022/11/06 13:42:58;;;;;;;;;;;13.50;99.90;;;;;;5093022;28;19908;-75
2022/11/06 13:45:24;;;;;;;;;;;13.40;99.90;;;;;;5092466;28;20494;-74
2022/11/06 13:47:50;;;;;;;;;;;13.40;99.90;;;;;;5092494;28;19914;-74
2022/11/06 13:50:20;;;;;;;;;;;13.40;99.90;;;;;;5091268;28;20349;-75
2022/11/06 13:52:55;;;;;;;;;;;13.40;99.90;;;;;;5093153;28;19999;-75
2022/11/06 13:55:21;;;;;;;;;;;13.50;99.90;;;;;;5092674;28;19912;-75
2022/11/06 13:57:59;;;;;;;;;;;13.40;99.90;;;;;;5092855;28;19931;-73
2022/11/06 14:00:44;;;;;;;;;;;13.40;99.90;;;;;;5091896;28;19957;-75
2022/11/06 14:03:25;;;;;;;;;;;13.40;99.90;;;;;;5091237;28;19944;-75
2022/11/06 14:05:51;;;;;;;;;;;13.50;99.90;;;;;;5092687;28;20337;-75
2022/11/06 14:08:18;;;;;;;;;;;13.50;99.90;;;;;;5092135;28;19908;-75
2022/11/06 14:10:50;;;;;;;;;;;13.40;99.90;;;;;;5092581;28;20371;-74
2022/11/06 14:13:16;;;;;;;;;;;13.40;99.90;;;;;;5090968;28;19934;-74
2022/11/06 14:15:41;;;;;;;;;;;13.40;99.90;;;;;;5092680;28;19912;-74
2022/11/06 14:18:12;;;;;;;;;;;13.40;99.90;;;;;;5092331;28;20372;-75
2022/11/06 14:20:38;;;;;;;;;;;13.40;99.90;;;;;;5092401;28;20022;-75
2022/11/06 14:23:22;;;;;;;;;;;13.40;99.90;;;;;;5092666;28;19978;-74
2022/11/06 14:26:07;;;;;;;;;;;13.30;99.90;;;;;;5092792;28;20416;-74
2022/11/06 14:28:34;;;;;;;;;;;13.30;99.90;;;;;;5092246;28;19958;-75
2022/11/06 14:30:59;;;;;;;;;;;13.30;99.90;;;;;;5092283;28;19908;-75
2022/11/06 14:33:43;;;;;;;;;;;13.30;99.90;;;;;;5091917;28;19923;-75
2022/11/06 14:36:12;;;;;;;;;;;13.30;99.90;;;;;;5091869;28;20379;-76
2022/11/06 14:38:38;;;;;;;;;;;13.20;99.90;;;;;;5092359;28;19916;-75
2022/11/06 14:41:23;;;;;;;;;;;13.10;99.90;;;;;;5092460;28;20003;-74